Palominas, Arizona
Current Conditions -  °F | °C
As of 9:56 PM on Sunday 21 Dec 2014 (Local Time) from KFHU Reporting Station
Clear Clear  
Wind Chill: 43°   Ceiling: Unl
Heat Index: 48°   Visibility: 10mi
Dew Point: 34°   Wind: 12mph
Humidity: 58%   Direction: 240°WSW
Pressure: 30.08"   Gusts: NA
Location:  31.4041°N, 110.306°W
Report Text: KFHU 220456Z AUTO 24010KT 10SM CLR 09/01 A3008 RMK AO2 SLP167 T00890011 $
Loading
Personal Weather Stations






























Interactive Weather Map New forecast layout! Learn more

10-Day Weather Forecast

Advertisements
Track Severe Weather on mobile